createdAt,value
2024-05-09T00:08:46.101Z,15.1
2024-05-09T00:37:46.485Z,14.76
2024-05-09T01:06:52.084Z,13.88
2024-05-09T01:35:47.720Z,13.08
2024-05-09T02:05:00.125Z,13.49
2024-05-09T02:33:51.711Z,12.74
2024-05-09T03:02:35.079Z,12.55
2024-05-09T03:31:47.204Z,13.18
2024-05-09T04:00:40.758Z,12.03
2024-05-09T04:29:16.909Z,12.24
2024-05-09T04:58:14.177Z,12.51
2024-05-09T05:27:06.816Z,12.77
2024-05-09T05:55:50.896Z,12.7
2024-05-09T06:24:52.895Z,13.94
2024-05-09T06:53:54.083Z,14.49
2024-05-09T07:22:59.445Z,15.58
2024-05-09T07:53:27.758Z,16.43
2024-05-09T07:53:47.635Z,16.52
2024-05-09T08:22:08.499Z,17.5
2024-05-09T08:51:11.288Z,18.61
2024-05-09T09:20:29.656Z,19.62
2024-05-09T09:49:07.470Z,20.54
2024-05-09T10:17:59.706Z,21.44
2024-05-09T10:46:48.593Z,21.68
2024-05-09T11:15:57.726Z,22.23
2024-05-09T11:45:04.174Z,23.15
2024-05-09T12:13:59.943Z,22.94
2024-05-09T12:43:12.281Z,23.25
2024-05-09T13:12:00.770Z,23.82
2024-05-09T13:41:00.513Z,24.17
2024-05-09T14:10:19.701Z,24.15
2024-05-09T14:38:51.619Z,24.5
2024-05-09T15:07:52.651Z,24.36
2024-05-09T15:36:51.837Z,24.53
2024-05-09T16:05:48.855Z,24.71
2024-05-09T16:34:27.181Z,24.73
2024-05-09T17:03:23.992Z,24.4
2024-05-09T17:32:27.951Z,24.11
2024-05-09T18:01:22.457Z,23.51
2024-05-09T18:30:33.867Z,21.61
2024-05-09T18:59:10.928Z,21.74
2024-05-09T19:27:58.139Z,20.34
2024-05-09T19:56:58.490Z,19.63
2024-05-09T20:26:18.836Z,20
2024-05-09T20:55:22.954Z,19.3
2024-05-09T21:24:16.763Z,17.66
2024-05-09T21:53:18.079Z,17.08
2024-05-09T22:22:27.313Z,16.69
2024-05-09T22:51:27.695Z,16.07
2024-05-09T23:20:40.167Z,15.19
2024-05-09T23:49:07.054Z,14.66
